sensor_id;sensor_type;location;lat;lon;timestamp;pressure;altitude;pressure_sealevel;temperature;humidity
77662;BME280;67292;52.136;5.424;2023-02-22T00:00:20;101766.09;;;7.26;98.53
77662;BME280;67292;52.136;5.424;2023-02-22T00:03:02;101764.38;;;7.24;98.73
77662;BME280;67292;52.136;5.424;2023-02-22T00:05:29;101762.63;;;7.21;97.94
77662;BME280;67292;52.136;5.424;2023-02-22T00:07:56;101768.78;;;7.22;98.05
77662;BME280;67292;52.136;5.424;2023-02-22T00:10:24;101758.22;;;7.20;98.24
77662;BME280;67292;52.136;5.424;2023-02-22T00:12:53;101767.91;;;7.21;98.47
77662;BME280;67292;52.136;5.424;2023-02-22T00:15:22;101763.50;;;7.19;98.21
77662;BME280;67292;52.136;5.424;2023-02-22T00:17:53;101762.63;;;7.18;98.46
77662;BME280;67292;52.136;5.424;2023-02-22T00:20:20;101760.84;;;7.19;98.71
77662;BME280;67292;52.136;5.424;2023-02-22T00:22:49;101758.22;;;7.20;98.69
77662;BME280;67292;52.136;5.424;2023-02-22T00:25:21;101759.97;;;7.18;99.10
77662;BME280;67292;52.136;5.424;2023-02-22T00:27:50;101760.84;;;7.20;98.55
77662;BME280;67292;52.136;5.424;2023-02-22T00:30:23;101762.63;;;7.18;98.58
77662;BME280;67292;52.136;5.424;2023-02-22T00:32:55;101761.75;;;7.18;98.18
77662;BME280;67292;52.136;5.424;2023-02-22T00:35:24;101757.34;;;7.18;98.68
77662;BME280;67292;52.136;5.424;2023-02-22T00:37:55;101761.75;;;7.19;98.72
77662;BME280;67292;52.136;5.424;2023-02-22T00:40:25;101764.41;;;7.16;98.79
77662;BME280;67292;52.136;5.424;2023-02-22T00:42:52;101768.81;;;7.19;98.57
77662;BME280;67292;52.136;5.424;2023-02-22T00:45:22;101763.50;;;7.20;98.27
77662;BME280;67292;52.136;5.424;2023-02-22T00:47:49;101766.16;;;7.19;98.75
77662;BME280;67292;52.136;5.424;2023-02-22T00:50:18;101755.56;;;7.16;98.56
77662;BME280;67292;52.136;5.424;2023-02-22T00:52:44;101751.22;;;7.13;98.23
77662;BME280;67292;52.136;5.424;2023-02-22T00:55:20;101746.78;;;7.14;98.43
77662;BME280;67292;52.136;5.424;2023-02-22T00:57:47;101738.84;;;7.12;98.68
77662;BME280;67292;52.136;5.424;2023-02-22T01:00:19;101735.31;;;7.12;98.54
77662;BME280;67292;52.136;5.424;2023-02-22T01:02:46;101742.38;;;7.10;98.66
77662;BME280;67292;52.136;5.424;2023-02-22T01:05:22;101738.84;;;7.11;98.71
77662;BME280;67292;52.136;5.424;2023-02-22T01:07:49;101732.69;;;7.09;98.04
77662;BME280;67292;52.136;5.424;2023-02-22T01:10:19;101724.75;;;7.09;98.35
77662;BME280;67292;52.136;5.424;2023-02-22T01:12:47;101723.88;;;7.08;98.66
77662;BME280;67292;52.136;5.424;2023-02-22T01:15:18;101729.16;;;7.08;98.77
77662;BME280;67292;52.136;5.424;2023-02-22T01:17:49;101726.53;;;7.07;98.49
77662;BME280;67292;52.136;5.424;2023-02-22T01:20:17;101729.16;;;7.07;99.10
77662;BME280;67292;52.136;5.424;2023-02-22T01:22:46;101730.06;;;7.06;98.59
77662;BME280;67292;52.136;5.424;2023-02-22T01:25:20;101726.53;;;7.07;98.36
77662;BME280;67292;52.136;5.424;2023-02-22T01:27:48;101715.94;;;7.07;98.63
77662;BME280;67292;52.136;5.424;2023-02-22T01:30:20;101718.59;;;7.04;98.50
77662;BME280;67292;52.136;5.424;2023-02-22T01:32:48;101721.28;;;7.02;98.67
77662;BME280;67292;52.136;5.424;2023-02-22T01:35:20;101719.50;;;7.03;98.28
77662;BME280;67292;52.136;5.424;2023-02-22T01:37:46;101712.47;;;7.00;98.82
77662;BME280;67292;52.136;5.424;2023-02-22T01:40:17;101718.63;;;7.02;98.36
77662;BME280;67292;52.136;5.424;2023-02-22T01:42:50;101709.81;;;7.02;98.48
77662;BME280;67292;52.136;5.424;2023-02-22T01:48:13;101698.34;;;7.00;98.44
77662;BME280;67292;52.136;5.424;2023-02-22T01:50:47;101701.88;;;6.97;98.55
77662;BME280;67292;52.136;5.424;2023-02-22T01:53:21;101701.00;;;6.96;98.60
77662;BME280;67292;52.136;5.424;2023-02-22T01:55:50;101691.31;;;6.97;98.71
77662;BME280;67292;52.136;5.424;2023-02-22T01:58:21;101701.88;;;6.97;98.92
77662;BME280;67292;52.136;5.424;2023-02-22T02:00:50;101701.88;;;6.95;98.34
77662;BME280;67292;52.136;5.424;2023-02-22T02:03:21;101703.66;;;6.95;98.61
77662;BME280;67292;52.136;5.424;2023-02-22T02:05:50;101696.59;;;6.92;98.32
77662;BME280;67292;52.136;5.424;2023-02-22T02:10:58;101687.84;;;6.86;97.97
77662;BME280;67292;52.136;5.424;2023-02-22T02:13:27;101686.94;;;6.87;98.13
77662;BME280;67292;52.136;5.424;2023-02-22T02:15:54;101685.19;;;6.86;97.95
77662;BME280;67292;52.136;5.424;2023-02-22T02:18:23;101678.19;;;6.80;97.82
77662;BME280;67292;52.136;5.424;2023-02-22T02:21:16;101679.94;;;6.77;98.08
77662;BME280;67292;52.136;5.424;2023-02-22T02:24:26;101677.31;;;6.75;97.94
77662;BME280;67292;52.136;5.424;2023-02-22T02:27:09;101663.22;;;6.73;97.62
77662;BME280;67292;52.136;5.424;2023-02-22T02:30:27;101672.03;;;6.71;98.62
77662;BME280;67292;52.136;5.424;2023-02-22T02:33:31;101665.91;;;6.70;98.33
77662;BME280;67292;52.136;5.424;2023-02-22T02:36:19;101666.78;;;6.68;97.99
77662;BME280;67292;52.136;5.424;2023-02-22T02:38:58;101665.91;;;6.66;98.19
77662;BME280;67292;52.136;5.424;2023-02-22T02:41:35;101648.28;;;6.62;97.96
77662;BME280;67292;52.136;5.424;2023-02-22T02:44:12;101647.41;;;6.61;98.06
77662;BME280;67292;52.136;5.424;2023-02-22T02:46:50;101645.69;;;6.57;98.27
77662;BME280;67292;52.136;5.424;2023-02-22T02:49:29;101650.09;;;6.55;98.08
77662;BME280;67292;52.136;5.424;2023-02-22T02:51:58;101649.22;;;6.53;97.71
77662;BME280;67292;52.136;5.424;2023-02-22T02:54:25;101643.03;;;6.51;97.69
77662;BME280;67292;52.136;5.424;2023-02-22T02:56:56;101639.50;;;6.53;97.91
77662;BME280;67292;52.136;5.424;2023-02-22T02:59:32;101637.78;;;6.48;98.33
77662;BME280;67292;52.136;5.424;2023-02-22T03:07:47;101629.03;;;6.34;97.46
77662;BME280;67292;52.136;5.424;2023-02-22T03:13:31;101629.94;;;6.25;97.25
77662;BME280;67292;52.136;5.424;2023-02-22T03:18:48;101630.88;;;6.15;97.60
77662;BME280;67292;52.136;5.424;2023-02-22T03:26:32;101622.94;;;6.07;97.61
77662;BME280;67292;52.136;5.424;2023-02-22T03:29:02;101615.94;;;6.05;97.77
77662;BME280;67292;52.136;5.424;2023-02-22T03:31:39;101618.59;;;6.03;98.32
77662;BME280;67292;52.136;5.424;2023-02-22T03:34:18;101620.34;;;6.03;97.86
77662;BME280;67292;52.136;5.424;2023-02-22T03:37:00;101615.94;;;6.02;97.55
77662;BME280;67292;52.136;5.424;2023-02-22T03:39:29;101610.66;;;5.99;97.32
77662;BME280;67292;52.136;5.424;2023-02-22T03:42:03;101614.19;;;6.01;97.45
77662;BME280;67292;52.136;5.424;2023-02-22T03:44:37;101609.78;;;6.00;97.81
77662;BME280;67292;52.136;5.424;2023-02-22T03:47:10;101608.91;;;5.98;97.98
77662;BME280;67292;52.136;5.424;2023-02-22T03:49:50;101606.28;;;5.93;97.82
77662;BME280;67292;52.136;5.424;2023-02-22T03:52:19;101602.75;;;5.94;98.67
77662;BME280;67292;52.136;5.424;2023-02-22T03:54:50;101601.84;;;5.95;98.01
77662;BME280;67292;52.136;5.424;2023-02-22T03:57:25;101599.25;;;5.92;98.24
77662;BME280;67292;52.136;5.424;2023-02-22T03:59:54;101593.06;;;5.90;98.03
77662;BME280;67292;52.136;5.424;2023-02-22T04:02:20;101593.97;;;5.89;98.39
77662;BME280;67292;52.136;5.424;2023-02-22T04:04:49;101586.00;;;5.86;98.38
77662;BME280;67292;52.136;5.424;2023-02-22T04:07:16;101593.03;;;5.87;98.44
77662;BME280;67292;52.136;5.424;2023-02-22T04:09:43;101588.66;;;5.84;98.10
77662;BME280;67292;52.136;5.424;2023-02-22T04:12:09;101594.81;;;5.85;97.62
77662;BME280;67292;52.136;5.424;2023-02-22T04:14:36;101586.91;;;5.83;97.87
77662;BME280;67292;52.136;5.424;2023-02-22T04:17:02;101588.69;;;5.83;98.19
77662;BME280;67292;52.136;5.424;2023-02-22T04:19:29;101585.16;;;5.84;98.46
77662;BME280;67292;52.136;5.424;2023-02-22T04:21:55;101580.72;;;5.84;97.71
77662;BME280;67292;52.136;5.424;2023-02-22T04:24:22;101573.72;;;5.80;98.23
77662;BME280;67292;52.136;5.424;2023-02-22T04:26:49;101576.34;;;5.79;98.65
77662;BME280;67292;52.136;5.424;2023-02-22T04:29:15;101571.06;;;5.74;98.62
77662;BME280;67292;52.136;5.424;2023-02-22T04:31:42;101571.06;;;5.74;98.29
77662;BME280;67292;52.136;5.424;2023-02-22T04:34:08;101570.19;;;5.74;98.49
77662;BME280;67292;52.136;5.424;2023-02-22T04:36:35;101566.66;;;5.75;98.67
77662;BME280;67292;52.136;5.424;2023-02-22T04:39:02;101560.53;;;5.73;98.92
77662;BME280;67292;52.136;5.424;2023-02-22T04:41:29;101552.63;;;5.73;98.62
77662;BME280;67292;52.136;5.424;2023-02-22T04:43:56;101550.84;;;5.72;98.42
77662;BME280;67292;52.136;5.424;2023-02-22T04:46:23;101555.25;;;5.71;98.84
77662;BME280;67292;52.136;5.424;2023-02-22T04:48:50;101549.97;;;5.71;98.77
77662;BME280;67292;52.136;5.424;2023-02-22T04:51:16;101556.13;;;5.72;98.99
77662;BME280;67292;52.136;5.424;2023-02-22T04:53:43;101550.84;;;5.69;98.29
77662;BME280;67292;52.136;5.424;2023-02-22T04:56:10;101536.78;;;5.70;99.12
77662;BME280;67292;52.136;5.424;2023-02-22T04:58:37;101531.50;;;5.65;99.21
77662;BME280;67292;52.136;5.424;2023-02-22T05:01:03;101530.63;;;5.66;99.27
77662;BME280;67292;52.136;5.424;2023-02-22T05:03:30;101527.97;;;5.65;99.21
77662;BME280;67292;52.136;5.424;2023-02-22T05:05:57;101531.50;;;5.65;98.76
77662;BME280;67292;52.136;5.424;2023-02-22T05:08:23;101529.75;;;5.67;98.96
77662;BME280;67292;52.136;5.424;2023-02-22T05:10:50;101526.22;;;5.67;98.93
77662;BME280;67292;52.136;5.424;2023-02-22T05:13:17;101521.81;;;5.66;98.85
77662;BME280;67292;52.136;5.424;2023-02-22T05:15:44;101519.19;;;5.66;99.18
77662;BME280;67292;52.136;5.424;2023-02-22T05:18:11;101517.41;;;5.65;98.72
77662;BME280;67292;52.136;5.424;2023-02-22T05:20:37;101514.78;;;5.63;98.64
77662;BME280;67292;52.136;5.424;2023-02-22T05:23:05;101511.25;;;5.63;98.57
77662;BME280;67292;52.136;5.424;2023-02-22T05:25:32;101520.94;;;5.64;99.19
77662;BME280;67292;52.136;5.424;2023-02-22T05:28:03;101516.53;;;5.64;98.73
77662;BME280;67292;52.136;5.424;2023-02-22T05:30:33;101508.66;;;5.60;98.74
77662;BME280;67292;52.136;5.424;2023-02-22T05:33:01;101507.78;;;5.59;99.30
77662;BME280;67292;52.136;5.424;2023-02-22T05:35:28;101512.16;;;5.60;99.21
77662;BME280;67292;52.136;5.424;2023-02-22T05:37:55;101502.50;;;5.56;99.57
77662;BME280;67292;52.136;5.424;2023-02-22T05:40:24;101500.72;;;5.60;99.61
77662;BME280;67292;52.136;5.424;2023-02-22T05:42:52;101501.63;;;5.62;99.16
77662;BME280;67292;52.136;5.424;2023-02-22T05:45:21;101500.72;;;5.60;99.97
77662;BME280;67292;52.136;5.424;2023-02-22T05:47:49;101506.00;;;5.61;99.42
77662;BME280;67292;52.136;5.424;2023-02-22T05:50:17;101495.44;;;5.61;99.83
77662;BME280;67292;52.136;5.424;2023-02-22T05:52:46;101497.22;;;5.62;99.82
77662;BME280;67292;52.136;5.424;2023-02-22T05:55:17;101494.56;;;5.62;99.95
77662;BME280;67292;52.136;5.424;2023-02-22T05:57:44;101493.66;;;5.65;99.69
77662;BME280;67292;52.136;5.424;2023-02-22T06:00:30;101491.03;;;5.68;99.66
77662;BME280;67292;52.136;5.424;2023-02-22T06:03:05;101487.50;;;5.67;99.87
77662;BME280;67292;52.136;5.424;2023-02-22T06:05:33;101481.34;;;5.70;99.76
77662;BME280;67292;52.136;5.424;2023-02-22T06:08:01;101482.22;;;5.69;100.00
77662;BME280;67292;52.136;5.424;2023-02-22T06:10:28;101479.59;;;5.67;100.00
77662;BME280;67292;52.136;5.424;2023-02-22T06:12:56;101477.81;;;5.69;100.00
77662;BME280;67292;52.136;5.424;2023-02-22T06:15:24;101471.66;;;5.69;100.00
77662;BME280;67292;52.136;5.424;2023-02-22T06:17:52;101474.28;;;5.70;100.00
77662;BME280;67292;52.136;5.424;2023-02-22T06:20:21;101462.84;;;5.70;99.80
77662;BME280;67292;52.136;5.424;2023-02-22T06:22:49;101457.56;;;5.70;100.00
77662;BME280;67292;52.136;5.424;2023-02-22T06:25:18;101461.97;;;5.71;99.58
77662;BME280;67292;52.136;5.424;2023-02-22T06:27:45;101480.47;;;5.69;99.78
77662;BME280;67292;52.136;5.424;2023-02-22T06:30:14;101483.09;;;5.71;99.86
77662;BME280;67292;52.136;5.424;2023-02-22T06:32:41;101481.34;;;5.70;100.00
77662;BME280;67292;52.136;5.424;2023-02-22T06:35:08;101473.41;;;5.73;100.00
77662;BME280;67292;52.136;5.424;2023-02-22T06:37:34;101483.09;;;5.72;99.72
77662;BME280;67292;52.136;5.424;2023-02-22T06:40:01;101482.22;;;5.72;100.00
77662;BME280;67292;52.136;5.424;2023-02-22T06:42:31;101469.00;;;5.72;100.00
77662;BME280;67292;52.136;5.424;2023-02-22T06:44:58;101475.19;;;5.72;100.00
77662;BME280;67292;52.136;5.424;2023-02-22T06:47:25;101473.41;;;5.70;100.00
77662;BME280;67292;52.136;5.424;2023-02-22T06:49:53;101462.84;;;5.68;100.00
77662;BME280;67292;52.136;5.424;2023-02-22T06:52:20;101458.47;;;5.67;100.00
77662;BME280;67292;52.136;5.424;2023-02-22T06:54:47;101452.31;;;5.67;100.00
77662;BME280;67292;52.136;5.424;2023-02-22T06:57:14;101446.16;;;5.65;100.00
77662;BME280;67292;52.136;5.424;2023-02-22T06:59:41;101454.94;;;5.65;100.00
77662;BME280;67292;52.136;5.424;2023-02-22T07:02:10;101454.94;;;5.65;100.00
77662;BME280;67292;52.136;5.424;2023-02-22T07:04:37;101461.09;;;5.66;100.00
77662;BME280;67292;52.136;5.424;2023-02-22T07:07:04;101455.81;;;5.66;100.00
77662;BME280;67292;52.136;5.424;2023-02-22T07:09:31;101461.97;;;5.68;100.00
77662;BME280;67292;52.136;5.424;2023-02-22T07:11:57;101457.59;;;5.65;100.00
77662;BME280;67292;52.136;5.424;2023-02-22T07:14:24;101455.81;;;5.66;100.00
77662;BME280;67292;52.136;5.424;2023-02-22T07:16:51;101451.41;;;5.66;100.00
77662;BME280;67292;52.136;5.424;2023-02-22T07:19:17;101460.22;;;5.67;100.00
77662;BME280;67292;52.136;5.424;2023-02-22T07:21:44;101451.41;;;5.68;100.00
77662;BME280;67292;52.136;5.424;2023-02-22T07:24:13;101460.22;;;5.68;100.00
77662;BME280;67292;52.136;5.424;2023-02-22T07:26:40;101456.69;;;5.66;100.00
77662;BME280;67292;52.136;5.424;2023-02-22T07:29:07;101467.25;;;5.66;100.00
77662;BME280;67292;52.136;5.424;2023-02-22T07:31:37;101461.09;;;5.66;100.00
77662;BME280;67292;52.136;5.424;2023-02-22T07:34:04;101464.63;;;5.68;100.00
77662;BME280;67292;52.136;5.424;2023-02-22T07:36:31;101464.63;;;5.69;100.00
77662;BME280;67292;52.136;5.424;2023-02-22T07:38:58;101465.50;;;5.70;100.00
77662;BME280;67292;52.136;5.424;2023-02-22T07:41:25;101464.63;;;5.72;100.00
77662;BME280;67292;52.136;5.424;2023-02-22T07:43:51;101471.66;;;5.72;100.00
77662;BME280;67292;52.136;5.424;2023-02-22T07:46:18;101465.47;;;5.74;100.00
77662;BME280;67292;52.136;5.424;2023-02-22T07:48:45;101465.50;;;5.73;100.00
77662;BME280;67292;52.136;5.424;2023-02-22T07:51:14;101471.63;;;5.75;100.00
77662;BME280;67292;52.136;5.424;2023-02-22T07:53:42;101474.25;;;5.76;100.00
77662;BME280;67292;52.136;5.424;2023-02-22T07:56:08;101476.91;;;5.76;100.00
77662;BME280;67292;52.136;5.424;2023-02-22T07:58:36;101485.69;;;5.77;100.00
77662;BME280;67292;52.136;5.424;2023-02-22T08:01:03;101474.25;;;5.79;100.00
77662;BME280;67292;52.136;5.424;2023-02-22T08:03:34;101476.91;;;5.78;100.00
77662;BME280;67292;52.136;5.424;2023-02-22T08:06:04;101489.22;;;5.77;100.00
77662;BME280;67292;52.136;5.424;2023-02-22T08:08:31;101480.41;;;5.80;100.00
77662;BME280;67292;52.136;5.424;2023-02-22T08:10:58;101481.28;;;5.82;100.00
77662;BME280;67292;52.136;5.424;2023-02-22T08:13:24;101484.81;;;5.82;100.00
77662;BME280;67292;52.136;5.424;2023-02-22T08:15:52;101479.50;;;5.85;100.00
77662;BME280;67292;52.136;5.424;2023-02-22T08:18:20;101476.84;;;5.85;100.00
77662;BME280;67292;52.136;5.424;2023-02-22T08:20:49;101476.00;;;5.88;100.00
77662;BME280;67292;52.136;5.424;2023-02-22T08:23:19;101482.16;;;5.89;100.00
77662;BME280;67292;52.136;5.424;2023-02-22T08:25:46;101472.47;;;5.91;100.00
77662;BME280;67292;52.136;5.424;2023-02-22T08:28:16;101470.72;;;5.93;100.00
77662;BME280;67292;52.136;5.424;2023-02-22T08:30:46;101475.94;;;5.97;100.00
77662;BME280;67292;52.136;5.424;2023-02-22T08:33:14;101465.38;;;5.97;100.00
77662;BME280;67292;52.136;5.424;2023-02-22T08:35:46;101479.47;;;5.99;100.00
77662;BME280;67292;52.136;5.424;2023-02-22T08:38:27;101469.78;;;6.03;100.00
77662;BME280;67292;52.136;5.424;2023-02-22T08:40:54;101468.91;;;6.02;100.00
77662;BME280;67292;52.136;5.424;2023-02-22T08:43:22;101471.53;;;6.02;100.00
77662;BME280;67292;52.136;5.424;2023-02-22T08:45:49;101478.53;;;6.06;100.00
77662;BME280;67292;52.136;5.424;2023-02-22T08:48:18;101474.13;;;6.10;100.00
77662;BME280;67292;52.136;5.424;2023-02-22T08:50:44;101471.47;;;6.13;100.00
77662;BME280;67292;52.136;5.424;2023-02-22T08:53:13;101467.97;;;6.12;100.00
77662;BME280;67292;52.136;5.424;2023-02-22T08:55:40;101472.34;;;6.15;100.00
77662;BME280;67292;52.136;5.424;2023-02-22T08:58:08;101467.91;;;6.18;100.00
77662;BME280;67292;52.136;5.424;2023-02-22T09:00:37;101462.63;;;6.21;100.00
77662;BME280;67292;52.136;5.424;2023-02-22T09:03:10;101451.16;;;6.22;100.00
77662;BME280;67292;52.136;5.424;2023-02-22T09:05:39;101449.41;;;6.25;100.00
77662;BME280;67292;52.136;5.424;2023-02-22T09:08:06;101443.22;;;6.26;100.00
77662;BME280;67292;52.136;5.424;2023-02-22T09:10:34;101442.31;;;6.28;100.00
77662;BME280;67292;52.136;5.424;2023-02-22T09:13:01;101438.78;;;6.31;100.00
77662;BME280;67292;52.136;5.424;2023-02-22T09:15:30;101434.34;;;6.36;100.00
77662;BME280;67292;52.136;5.424;2023-02-22T09:17:57;101436.06;;;6.40;100.00
77662;BME280;67292;52.136;5.424;2023-02-22T09:20:25;101432.50;;;6.44;99.70
77662;BME280;67292;52.136;5.424;2023-02-22T09:22:52;101435.09;;;6.50;100.00
77662;BME280;67292;52.136;5.424;2023-02-22T09:25:20;101434.22;;;6.51;100.00
77662;BME280;67292;52.136;5.424;2023-02-22T09:27:49;101438.56;;;6.58;100.00
77662;BME280;67292;52.136;5.424;2023-02-22T09:30:30;101442.94;;;6.62;99.93
77662;BME280;67292;52.136;5.424;2023-02-22T09:33:03;101440.25;;;6.67;100.00
77662;BME280;67292;52.136;5.424;2023-02-22T09:35:31;101434.97;;;6.67;99.69
77662;BME280;67292;52.136;5.424;2023-02-22T09:38:03;101437.56;;;6.71;99.96
77662;BME280;67292;52.136;5.424;2023-02-22T09:40:33;101426.94;;;6.76;99.82
77662;BME280;67292;52.136;5.424;2023-02-22T09:51:53;101418.00;;;6.92;99.64
77662;BME280;67292;52.136;5.424;2023-02-22T09:54:51;101406.50;;;6.94;99.49
77662;BME280;67292;52.136;5.424;2023-02-22T09:57:37;101401.94;;;7.07;98.92
77662;BME280;67292;52.136;5.424;2023-02-22T10:00:17;101400.06;;;7.18;99.14
77662;BME280;67292;52.136;5.424;2023-02-22T10:03:14;101399.06;;;7.28;99.28
77662;BME280;67292;52.136;5.424;2023-02-22T10:06:01;101394.53;;;7.38;99.16
77662;BME280;67292;52.136;5.424;2023-02-22T10:08:31;101396.16;;;7.50;98.97
77662;BME280;67292;52.136;5.424;2023-02-22T10:25:04;101378.56;;;8.10;97.47
77662;BME280;67292;52.136;5.424;2023-02-22T10:27:41;101376.63;;;8.20;97.56
77662;BME280;67292;52.136;5.424;2023-02-22T10:30:23;101376.41;;;8.35;97.30
77662;BME280;67292;52.136;5.424;2023-02-22T10:33:22;101369.09;;;8.49;96.89
77662;BME280;67292;52.136;5.424;2023-02-22T10:35:51;101375.16;;;8.56;95.92
77662;BME280;67292;52.136;5.424;2023-02-22T10:38:25;101378.59;;;8.64;97.15
77662;BME280;67292;52.136;5.424;2023-02-22T10:43:42;101373.19;;;8.67;94.91
77662;BME280;67292;52.136;5.424;2023-02-22T10:46:19;101370.53;;;8.67;95.17
77662;BME280;67292;52.136;5.424;2023-02-22T10:48:50;101370.50;;;8.70;96.03
77662;BME280;67292;52.136;5.424;2023-02-22T10:51:17;101375.59;;;8.81;97.12
77662;BME280;67292;52.136;5.424;2023-02-22T10:56:51;101370.44;;;8.74;94.71
77662;BME280;67292;52.136;5.424;2023-02-22T10:59:31;101369.44;;;8.78;95.74
77662;BME280;67292;52.136;5.424;2023-02-22T11:02:00;101369.38;;;8.83;96.18
77662;BME280;67292;52.136;5.424;2023-02-22T11:04:51;101372.06;;;8.82;94.52
77662;BME280;67292;52.136;5.424;2023-02-22T11:07:25;101365.81;;;8.86;96.58
77662;BME280;67292;52.136;5.424;2023-02-22T11:10:03;101363.94;;;8.89;96.03
77662;BME280;67292;52.136;5.424;2023-02-22T11:12:34;101363.94;;;8.89;95.70
77662;BME280;67292;52.136;5.424;2023-02-22T11:17:46;101355.06;;;8.92;95.09
77662;BME280;67292;52.136;5.424;2023-02-22T11:20:22;101349.72;;;8.93;95.81
77662;BME280;67292;52.136;5.424;2023-02-22T11:22:53;101347.94;;;8.94;95.48
77662;BME280;67292;52.136;5.424;2023-02-22T11:25:25;101353.28;;;8.92;95.64
77662;BME280;67292;52.136;5.424;2023-02-22T11:27:53;101350.56;;;8.95;96.07
77662;BME280;67292;52.136;5.424;2023-02-22T11:30:29;101354.09;;;8.96;96.60
77662;BME280;67292;52.136;5.424;2023-02-22T11:33:12;101362.94;;;8.96;95.76
77662;BME280;67292;52.136;5.424;2023-02-22T11:35:55;101355.78;;;9.00;95.58
77662;BME280;67292;52.136;5.424;2023-02-22T11:38:26;101353.94;;;9.03;96.06
77662;BME280;67292;52.136;5.424;2023-02-22T11:41:13;101348.56;;;9.08;96.43
77662;BME280;67292;52.136;5.424;2023-02-22T11:43:43;101341.41;;;9.11;95.90
77662;BME280;67292;52.136;5.424;2023-02-22T11:46:26;101343.09;;;9.15;95.41
77662;BME280;67292;52.136;5.424;2023-02-22T11:49:05;101333.34;;;9.16;95.00
77662;BME280;67292;52.136;5.424;2023-02-22T11:51:47;101338.53;;;9.21;94.22
77662;BME280;67292;52.136;5.424;2023-02-22T12:00:05;101325.28;;;9.21;94.30
77662;BME280;67292;52.136;5.424;2023-02-22T12:03:34;101319.03;;;9.23;94.29
77662;BME280;67292;52.136;5.424;2023-02-22T12:11:58;101315.66;;;9.15;95.01
77662;BME280;67292;52.136;5.424;2023-02-22T12:14:49;101315.69;;;9.13;94.74
77662;BME280;67292;52.136;5.424;2023-02-22T12:17:32;101319.25;;;9.12;95.27
77662;BME280;67292;52.136;5.424;2023-02-22T12:20:14;101314.81;;;9.13;95.37
77662;BME280;67292;52.136;5.424;2023-02-22T12:23:14;101317.44;;;9.14;95.08
77662;BME280;67292;52.136;5.424;2023-02-22T12:26:01;101317.41;;;9.16;95.21
77662;BME280;67292;52.136;5.424;2023-02-22T12:28:43;101311.19;;;9.19;96.07
77662;BME280;67292;52.136;5.424;2023-02-22T12:31:37;101316.38;;;9.23;96.69
77662;BME280;67292;52.136;5.424;2023-02-22T12:34:14;101304.88;;;9.23;95.86
77662;BME280;67292;52.136;5.424;2023-02-22T12:39:41;101302.13;;;9.29;95.71
77662;BME280;67292;52.136;5.424;2023-02-22T12:42:27;101295.97;;;9.27;95.28
77662;BME280;67292;52.136;5.424;2023-02-22T12:45:05;101286.13;;;9.30;94.83
77662;BME280;67292;52.136;5.424;2023-02-22T12:47:46;101294.88;;;9.35;95.80
77662;BME280;67292;52.136;5.424;2023-02-22T12:50:20;101287.72;;;9.39;95.13
77662;BME280;67292;52.136;5.424;2023-02-22T12:53:01;101293.75;;;9.45;94.70
77662;BME280;67292;52.136;5.424;2023-02-22T12:55:43;101293.72;;;9.48;95.19
77662;BME280;67292;52.136;5.424;2023-02-22T12:58:38;101290.06;;;9.52;94.59
77662;BME280;67292;52.136;5.424;2023-02-22T13:01:16;101287.25;;;9.60;94.56
77662;BME280;67292;52.136;5.424;2023-02-22T13:03:46;101284.47;;;9.65;94.89
77662;BME280;67292;52.136;5.424;2023-02-22T13:06:39;101289.72;;;9.68;94.80
77662;BME280;67292;52.136;5.424;2023-02-22T13:09:25;101287.06;;;9.68;94.86
77662;BME280;67292;52.136;5.424;2023-02-22T13:21:15;101291.28;;;9.76;95.35
77662;BME280;67292;52.136;5.424;2023-02-22T13:23:55;101291.31;;;9.75;93.82
77662;BME280;67292;52.136;5.424;2023-02-22T13:26:48;101286.78;;;9.80;94.47
77662;BME280;67292;52.136;5.424;2023-02-22T13:29:27;101288.59;;;9.78;93.12
77662;BME280;67292;52.136;5.424;2023-02-22T13:35:23;101277.91;;;9.81;94.15
77662;BME280;67292;52.136;5.424;2023-02-22T13:41:02;101284.81;;;9.86;94.25
77662;BME280;67292;52.136;5.424;2023-02-22T13:47:10;101288.28;;;9.92;94.83
77662;BME280;67292;52.136;5.424;2023-02-22T13:52:48;101275.84;;;9.92;94.17
77662;BME280;67292;52.136;5.424;2023-02-22T13:55:24;101281.06;;;9.95;94.74
77662;BME280;67292;52.136;5.424;2023-02-22T13:58:06;101272.28;;;9.93;94.42
77662;BME280;67292;52.136;5.424;2023-02-22T14:00:43;101281.16;;;9.92;93.90
77662;BME280;67292;52.136;5.424;2023-02-22T14:10:53;101282.09;;;9.89;92.94
77662;BME280;67292;52.136;5.424;2023-02-22T14:13:22;101288.28;;;9.92;94.05
77662;BME280;67292;52.136;5.424;2023-02-22T14:18:40;101293.56;;;9.93;94.65
77662;BME280;67292;52.136;5.424;2023-02-22T14:26:10;101295.34;;;9.93;94.13
77662;BME280;67292;52.136;5.424;2023-02-22T14:31:29;101290.09;;;9.89;93.55
77662;BME280;67292;52.136;5.424;2023-02-22T14:34:06;101293.72;;;9.85;94.29
77662;BME280;67292;52.136;5.424;2023-02-22T14:41:45;101311.44;;;9.85;93.72
77662;BME280;67292;52.136;5.424;2023-02-22T14:44:25;101299.00;;;9.87;93.80
77662;BME280;67292;52.136;5.424;2023-02-22T14:46:57;101303.44;;;9.86;93.65
77662;BME280;67292;52.136;5.424;2023-02-22T14:49:32;101310.44;;;9.91;94.10
77662;BME280;67292;52.136;5.424;2023-02-22T14:52:14;101301.56;;;9.92;93.47
77662;BME280;67292;52.136;5.424;2023-02-22T14:55:24;101303.22;;;9.96;93.64
77662;BME280;67292;52.136;5.424;2023-02-22T14:58:14;101300.66;;;9.93;93.80
77662;BME280;67292;52.136;5.424;2023-02-22T15:00:49;101298.00;;;9.93;92.75
77662;BME280;67292;52.136;5.424;2023-02-22T15:03:30;101303.22;;;9.96;93.27
77662;BME280;67292;52.136;5.424;2023-02-22T15:06:12;101303.34;;;9.91;92.60
77662;BME280;67292;52.136;5.424;2023-02-22T15:08:41;101296.31;;;9.88;92.78
77662;BME280;67292;52.136;5.424;2023-02-22T15:11:27;101300.66;;;9.93;93.79
77662;BME280;67292;52.136;5.424;2023-02-22T15:14:01;101297.16;;;9.91;93.37
77662;BME280;67292;52.136;5.424;2023-02-22T15:16:32;101298.06;;;9.89;93.38
77662;BME280;67292;52.136;5.424;2023-02-22T15:19:04;101289.19;;;9.91;94.01